Time;durP1;ratioP1;P1;durP2;ratioP2;P2;SDS_P1;SDS_P2;PMS_P1;PMS_P2;Temp;Humidity;BMP_temperature;BMP_pressure;BME280_temperature;BME280_humidity;BME280_pressure;Samples;Min_cycle;Max_cycle;Signal;HPM_P1;HPM_P2
2021/11/27 00:01:35;;;;;;;1.05;0.88;;;20.10;50.60;;;;;;4946092;29;19911;-41
2021/11/27 00:04:02;;;;;;;1.33;0.98;;;20.20;50.70;;;;;;4945834;29;20039;-41
2021/11/27 00:06:28;;;;;;;0.70;0.50;;;20.20;50.70;;;;;;4946214;29;20035;-41
2021/11/27 00:08:56;;;;;;;0.60;0.60;;;20.20;50.30;;;;;;4945698;29;20032;-41
2021/11/27 00:11:23;;;;;;;0.93;0.90;;;20.20;50.40;;;;;;4945897;29;20273;-41
2021/11/27 00:13:49;;;;;;;1.00;0.80;;;20.10;50.30;;;;;;4945603;29;20048;-41
2021/11/27 00:16:15;;;;;;;0.63;0.63;;;20.00;50.50;;;;;;4945737;29;20032;-41
2021/11/27 00:18:41;;;;;;;0.85;0.60;;;20.10;50.70;;;;;;4945336;29;20051;-41
2021/11/27 00:21:09;;;;;;;1.02;0.80;;;20.20;50.80;;;;;;4945900;29;20066;-41
2021/11/27 00:23:36;;;;;;;0.80;0.60;;;20.20;50.80;;;;;;4945675;29;20027;-41
2021/11/27 00:26:03;;;;;;;0.68;0.60;;;20.20;50.60;;;;;;4936454;29;20051;-42
2021/11/27 00:28:29;;;;;;;1.08;0.80;;;20.20;50.70;;;;;;4926298;29;20248;-41
2021/11/27 00:30:57;;;;;;;0.75;0.60;;;20.10;50.40;;;;;;4926539;29;20035;-41
2021/11/27 00:33:23;;;;;;;0.88;0.75;;;20.10;50.40;;;;;;4926429;29;20043;-41
2021/11/27 00:35:49;;;;;;;0.82;0.70;;;20.10;50.70;;;;;;4926578;29;20033;-42
2021/11/27 00:38:16;;;;;;;0.80;0.60;;;20.20;50.80;;;;;;4926304;29;20028;-41
2021/11/27 00:40:42;;;;;;;0.65;0.60;;;20.20;50.70;;;;;;4936611;29;20032;-43
2021/11/27 00:43:09;;;;;;;0.75;0.75;;;20.20;50.60;;;;;;4945674;29;20362;-41
2021/11/27 00:45:35;;;;;;;1.27;0.70;;;20.20;50.40;;;;;;4945504;29;20031;-43
2021/11/27 00:48:01;;;;;;;0.82;0.65;;;20.10;50.40;;;;;;4944840;29;20043;-41
2021/11/27 00:50:33;;;;;;;0.70;0.70;;;20.10;50.60;;;;;;4928258;29;20028;-43
2021/11/27 00:53:00;;;;;;;0.73;0.60;;;20.10;50.70;;;;;;4945262;29;20123;-41
2021/11/27 00:55:27;;;;;;;0.77;0.77;;;20.20;50.70;;;;;;4944695;29;20075;-41
2021/11/27 00:57:53;;;;;;;1.13;0.70;;;20.20;50.70;;;;;;4944987;29;20031;-41
2021/11/27 01:00:25;;;;;;;1.02;0.70;;;20.20;50.50;;;;;;4945237;29;20043;-41
2021/11/27 01:02:51;;;;;;;0.70;0.70;;;20.20;50.40;;;;;;4945189;29;20028;-42
2021/11/27 01:05:17;;;;;;;0.98;0.60;;;20.10;50.30;;;;;;4945412;29;20740;-42
2021/11/27 01:07:43;;;;;;;0.63;0.63;;;20.00;50.40;;;;;;4959870;29;20063;-41
2021/11/27 01:10:11;;;;;;;0.70;0.70;;;20.00;50.70;;;;;;4945038;29;20062;-41
2021/11/27 01:12:38;;;;;;;0.77;0.60;;;20.10;50.70;;;;;;4945245;29;20213;-42
2021/11/27 01:15:05;;;;;;;0.97;0.83;;;20.20;50.70;;;;;;4945029;29;20039;-42
2021/11/27 01:17:31;;;;;;;0.95;0.80;;;20.20;50.60;;;;;;4944961;29;20044;-41
2021/11/27 01:19:57;;;;;;;0.65;0.60;;;20.20;50.30;;;;;;4944663;29;20055;-44
2021/11/27 01:22:23;;;;;;;0.80;0.60;;;20.10;50.30;;;;;;4945076;29;20132;-42
2021/11/27 01:24:50;;;;;;;0.70;0.60;;;20.00;50.40;;;;;;4945214;29;20099;-42
2021/11/27 01:27:16;;;;;;;1.42;0.90;;;20.00;50.60;;;;;;4930076;29;20055;-40
2021/11/27 01:29:43;;;;;;;0.80;0.80;;;20.10;50.70;;;;;;4945913;29;20043;-40
2021/11/27 01:32:11;;;;;;;0.70;0.70;;;20.20;50.70;;;;;;4948832;29;20043;-40
2021/11/27 01:34:37;;;;;;;0.55;0.55;;;20.20;50.70;;;;;;4948852;29;20035;-40
2021/11/27 01:37:03;;;;;;;1.10;0.90;;;20.20;50.40;;;;;;4948780;29;20099;-40
2021/11/27 01:39:30;;;;;;;1.10;0.70;;;20.10;50.40;;;;;;4948154;29;20074;-43
2021/11/27 01:41:56;;;;;;;0.93;0.77;;;20.00;50.40;;;;;;4948685;29;20032;-41
2021/11/27 01:44:22;;;;;;;0.95;0.70;;;20.00;50.60;;;;;;4931599;29;20035;-42
2021/11/27 01:46:48;;;;;;;1.02;0.73;;;20.10;50.70;;;;;;4948475;29;20034;-41
2021/11/27 01:49:14;;;;;;;0.90;0.80;;;20.20;50.70;;;;;;4948272;29;20459;-41
2021/11/27 01:51:41;;;;;;;0.93;0.70;;;20.20;50.70;;;;;;4947805;29;20027;-41
2021/11/27 01:54:08;;;;;;;0.60;0.60;;;20.20;50.40;;;;;;4948471;29;20039;-40
2021/11/27 01:56:38;;;;;;;0.82;0.60;;;20.10;50.30;;;;;;4938087;29;20085;-41
2021/11/27 01:59:05;;;;;;;1.33;0.65;;;20.10;50.40;;;;;;4947936;29;20027;-41
2021/11/27 02:01:31;;;;;;;1.83;0.60;;;20.00;50.60;;;;;;4948231;29;20468;-41
2021/11/27 02:03:57;;;;;;;0.57;0.43;;;20.10;50.70;;;;;;4948092;29;20818;-41
2021/11/27 02:06:24;;;;;;;0.80;0.80;;;20.20;50.70;;;;;;4948293;29;20386;-41
2021/11/27 02:08:51;;;;;;;0.60;0.52;;;20.20;50.70;;;;;;4948200;29;20057;-41
2021/11/27 02:11:24;;;;;;;1.05;0.65;;;20.20;50.50;;;;;;4947979;29;20035;-40
2021/11/27 02:13:50;;;;;;;0.77;0.70;;;20.20;50.40;;;;;;4948139;29;20481;-41
2021/11/27 02:16:16;;;;;;;0.73;0.68;;;20.10;50.50;;;;;;4948181;29;20067;-41
2021/11/27 02:18:42;;;;;;;0.90;0.80;;;20.10;50.70;;;;;;4947668;29;20154;-41
2021/11/27 02:21:14;;;;;;;1.13;0.70;;;20.10;50.70;;;;;;4947752;29;20099;-41
2021/11/27 02:23:40;;;;;;;0.70;0.70;;;20.20;50.70;;;;;;4948054;29;20050;-40
2021/11/27 02:26:08;;;;;;;0.98;0.80;;;20.20;50.70;;;;;;4947381;29;20042;-40
2021/11/27 02:28:37;;;;;;;0.70;0.70;;;20.20;50.50;;;;;;4947891;29;20032;-41
2021/11/27 02:31:03;;;;;;;1.02;0.80;;;20.10;50.40;;;;;;4947497;29;20031;-41
2021/11/27 02:33:29;;;;;;;0.77;0.75;;;20.00;50.40;;;;;;4947505;29;20032;-40
2021/11/27 02:35:55;;;;;;;1.00;0.82;;;20.10;50.70;;;;;;4947356;29;20036;-40
2021/11/27 02:38:22;;;;;;;2.15;0.80;;;20.20;50.80;;;;;;4947588;29;20083;-41
2021/11/27 02:40:49;;;;;;;0.80;0.70;;;20.20;50.70;;;;;;4946965;29;20039;-45
2021/11/27 02:43:15;;;;;;;;;;;20.20;50.70;;;;;;4948035;29;20138;-41
2021/11/27 02:45:41;;;;;;;0.70;0.60;;;20.20;50.50;;;;;;4947637;29;19911;-41
2021/11/27 02:48:08;;;;;;;1.65;0.70;;;20.10;50.40;;;;;;4947212;29;20032;-41
2021/11/27 02:50:34;;;;;;;0.93;0.85;;;20.00;50.50;;;;;;4947026;29;20101;-41
2021/11/27 02:53:00;;;;;;;0.75;0.63;;;20.10;50.80;;;;;;4947417;29;20028;-40
2021/11/27 02:55:26;;;;;;;0.90;0.80;;;20.20;50.80;;;;;;4946705;29;20040;-40
2021/11/27 02:57:52;;;;;;;0.57;0.50;;;20.30;50.80;;;;;;4947375;29;20039;-40
2021/11/27 03:00:20;;;;;;;0.98;0.80;;;20.20;50.70;;;;;;4947010;29;20043;-40
2021/11/27 03:02:47;;;;;;;1.00;0.80;;;20.20;50.50;;;;;;4946916;29;20031;-40
2021/11/27 03:05:13;;;;;;;0.80;0.65;;;20.10;50.50;;;;;;4947246;29;20035;-42
2021/11/27 03:07:39;;;;;;;0.80;0.60;;;20.10;50.60;;;;;;4947316;29;20760;-42
2021/11/27 03:10:06;;;;;;;0.60;0.57;;;20.00;50.80;;;;;;4947140;29;20370;-41
2021/11/27 03:12:33;;;;;;;1.00;0.60;;;20.10;50.80;;;;;;4961547;29;20036;-40
2021/11/27 03:14:59;;;;;;;1.17;0.80;;;20.20;50.90;;;;;;4947023;29;20119;-41
2021/11/27 03:17:25;;;;;;;0.60;0.55;;;20.20;50.80;;;;;;4946779;29;20091;-40
2021/11/27 03:19:51;;;;;;;0.70;0.50;;;20.20;50.70;;;;;;4946769;29;20527;-41
2021/11/27 03:22:19;;;;;;;0.60;0.60;;;20.20;50.60;;;;;;4946695;29;20034;-40
2021/11/27 03:24:46;;;;;;;0.70;0.60;;;20.10;50.60;;;;;;4946757;29;20035;-40
2021/11/27 03:27:14;;;;;;;0.63;0.60;;;20.00;50.70;;;;;;4928205;29;20026;-40
2021/11/27 03:29:40;;;;;;;0.60;0.60;;;20.10;50.90;;;;;;4927805;29;20040;-42
2021/11/27 03:32:09;;;;;;;0.53;0.40;;;20.20;50.90;;;;;;4927236;29;20051;-41
2021/11/27 03:34:35;;;;;;;1.30;0.70;;;20.20;50.90;;;;;;4932382;29;20031;-41
2021/11/27 03:37:01;;;;;;;0.95;0.70;;;20.30;50.70;;;;;;4946706;29;20494;-41
2021/11/27 03:39:27;;;;;;;0.70;0.70;;;20.20;50.60;;;;;;4946422;29;20031;-40
2021/11/27 03:41:54;;;;;;;0.55;0.50;;;20.10;50.60;;;;;;4946319;29;20024;-40
2021/11/27 03:44:20;;;;;;;0.70;0.63;;;20.00;50.70;;;;;;4946435;29;20040;-40
2021/11/27 03:46:46;;;;;;;0.60;0.60;;;20.00;50.90;;;;;;4946131;29;20051;-42
2021/11/27 03:49:12;;;;;;;0.73;0.70;;;20.20;51.00;;;;;;4945431;29;20027;-41
2021/11/27 03:51:39;;;;;;;0.80;0.70;;;20.20;50.90;;;;;;4945578;29;20110;-41
2021/11/27 03:54:05;;;;;;;0.60;0.60;;;20.20;50.70;;;;;;4946181;29;20493;-41
2021/11/27 03:56:31;;;;;;;0.50;0.50;;;20.20;50.60;;;;;;4946390;29;20052;-41
2021/11/27 03:59:00;;;;;;;0.75;0.75;;;20.10;50.60;;;;;;4946146;29;20028;-41
2021/11/27 04:01:26;;;;;;;0.55;0.52;;;20.00;50.80;;;;;;4945709;29;20677;-41
2021/11/27 04:03:54;;;;;;;0.82;0.80;;;20.10;51.00;;;;;;4946064;29;20059;-41
2021/11/27 04:06:20;;;;;;;0.60;0.60;;;20.20;50.90;;;;;;4946103;29;20036;-40
2021/11/27 04:08:46;;;;;;;0.80;0.68;;;20.20;50.80;;;;;;4946108;29;20062;-41
2021/11/27 04:11:13;;;;;;;0.90;0.80;;;20.20;50.70;;;;;;4945998;29;20027;-42
2021/11/27 04:13:39;;;;;;;0.70;0.70;;;20.10;50.60;;;;;;4945504;29;20625;-40
2021/11/27 04:16:05;;;;;;;0.90;0.70;;;20.10;50.70;;;;;;4945941;29;20108;-41
2021/11/27 04:18:31;;;;;;;0.80;0.70;;;20.00;50.80;;;;;;4945356;29;20046;-40
2021/11/27 04:20:57;;;;;;;1.08;0.65;;;20.10;50.90;;;;;;4944542;29;20071;-41
2021/11/27 04:23:23;;;;;;;0.70;0.70;;;20.20;50.90;;;;;;4935791;29;20024;-45
2021/11/27 04:25:50;;;;;;;0.60;0.60;;;20.20;51.40;;;;;;4927418;29;20063;-40
2021/11/27 04:28:18;;;;;;;0.70;0.63;;;20.20;50.70;;;;;;4926654;29;20063;-41
2021/11/27 04:30:44;;;;;;;0.73;0.70;;;20.20;50.60;;;;;;4925540;29;20075;-41
2021/11/27 04:33:11;;;;;;;0.70;0.70;;;20.10;50.60;;;;;;4932505;29;20024;-45
2021/11/27 04:35:37;;;;;;;1.10;0.70;;;20.00;50.70;;;;;;4928388;29;20422;-42
2021/11/27 04:38:03;;;;;;;0.73;0.68;;;20.10;50.90;;;;;;4945459;29;20028;-41
2021/11/27 04:40:30;;;;;;;0.77;0.70;;;20.20;50.90;;;;;;4945525;29;20209;-41
2021/11/27 04:42:56;;;;;;;0.60;0.60;;;20.20;50.80;;;;;;4943754;29;20039;-42
2021/11/27 04:45:22;;;;;;;0.73;0.70;;;20.20;50.70;;;;;;4945330;29;20266;-41
2021/11/27 04:47:48;;;;;;;0.80;0.80;;;20.20;50.60;;;;;;4945139;29;20036;-40
2021/11/27 04:50:15;;;;;;;1.23;0.90;;;20.10;50.60;;;;;;4945358;29;20038;-41
2021/11/27 04:52:41;;;;;;;1.97;0.80;;;20.00;50.70;;;;;;4945062;29;20028;-41
2021/11/27 04:55:09;;;;;;;0.98;0.90;;;20.10;50.80;;;;;;4943698;29;20308;-41
2021/11/27 04:57:35;;;;;;;0.90;0.70;;;20.20;50.90;;;;;;4926136;29;20032;-40
2021/11/27 05:00:03;;;;;;;0.83;0.73;;;20.20;50.80;;;;;;4943380;29;20040;-41
2021/11/27 05:02:29;;;;;;;0.70;0.70;;;20.20;50.60;;;;;;4944823;29;20454;-40
2021/11/27 05:04:55;;;;;;;0.85;0.75;;;20.20;50.50;;;;;;4945125;29;20032;-40
2021/11/27 05:07:21;;;;;;;2.15;0.93;;;20.10;50.50;;;;;;4945321;29;20129;-40
2021/11/27 05:09:47;;;;;;;0.75;0.75;;;20.00;50.70;;;;;;4945431;29;20031;-40
2021/11/27 05:12:13;;;;;;;0.80;0.73;;;20.10;51.30;;;;;;4945094;29;20461;-41
2021/11/27 05:14:39;;;;;;;0.77;0.55;;;20.20;50.70;;;;;;4944751;29;20038;-40
2021/11/27 05:17:05;;;;;;;0.70;0.70;;;20.30;50.80;;;;;;4944506;29;20032;-40
2021/11/27 05:19:34;;;;;;;0.70;0.70;;;20.20;50.50;;;;;;4944985;29;20052;-40
2021/11/27 05:22:01;;;;;;;0.75;0.65;;;20.10;50.40;;;;;;4945131;29;20452;-40
2021/11/27 05:24:27;;;;;;;0.70;0.70;;;20.10;50.60;;;;;;4926817;29;20025;-40
2021/11/27 05:26:53;;;;;;;0.73;0.60;;;20.10;50.70;;;;;;4927158;29;20525;-44
2021/11/27 05:29:19;;;;;;;0.60;0.50;;;20.20;50.80;;;;;;4926090;29;20084;-41
2021/11/27 05:31:46;;;;;;;0.60;0.55;;;20.20;50.70;;;;;;4925996;29;20047;-41
2021/11/27 05:34:33;;;;;;;0.70;0.60;;;20.30;50.70;;;;;;4925636;29;20024;-40
2021/11/27 05:37:03;;;;;;;0.85;0.70;;;20.20;50.50;;;;;;4925772;29;20076;-41
2021/11/27 05:39:29;;;;;;;1.08;0.93;;;20.10;50.50;;;;;;4925889;29;20028;-40
2021/11/27 05:41:55;;;;;;;0.88;0.60;;;20.00;50.60;;;;;;4926011;29;20040;-40
2021/11/27 05:44:21;;;;;;;0.70;0.70;;;20.10;50.70;;;;;;4937803;29;20039;-41
2021/11/27 05:46:47;;;;;;;0.70;0.70;;;20.10;50.70;;;;;;4944853;29;20027;-42
2021/11/27 05:49:13;;;;;;;0.50;0.50;;;20.20;50.70;;;;;;4944830;29;20034;-40
2021/11/27 05:51:40;;;;;;;1.08;0.70;;;20.20;51.20;;;;;;4944947;29;20028;-40
2021/11/27 05:54:06;;;;;;;0.70;0.70;;;20.20;50.40;;;;;;4944551;29;20485;-40
2021/11/27 05:56:32;;;;;;;0.63;0.60;;;20.10;50.40;;;;;;4944195;29;20036;-40
2021/11/27 05:58:58;;;;;;;0.70;0.70;;;20.00;50.50;;;;;;4944778;29;20106;-40
2021/11/27 06:01:24;;;;;;;0.70;0.70;;;20.00;50.70;;;;;;4944829;29;20035;-41
2021/11/27 06:03:50;;;;;;;0.80;0.67;;;20.10;50.70;;;;;;4944479;29;20024;-40
2021/11/27 06:06:17;;;;;;;0.60;0.60;;;20.20;50.70;;;;;;4944688;29;20035;-41
2021/11/27 06:08:43;;;;;;;0.50;0.50;;;20.30;50.60;;;;;;4944799;29;20098;-41
2021/11/27 06:11:09;;;;;;;1.83;0.70;;;20.20;50.40;;;;;;4945610;29;20028;-40
2021/11/27 06:13:35;;;;;;;1.35;0.85;;;20.20;50.30;;;;;;4948003;29;20035;-41
2021/11/27 06:16:06;;;;;;;0.60;0.60;;;20.10;50.40;;;;;;4947907;29;20035;-40
2021/11/27 06:18:34;;;;;;;0.70;0.68;;;20.00;50.60;;;;;;4947734;29;20036;-39
2021/11/27 06:21:03;;;;;;;0.90;0.70;;;20.10;50.60;;;;;;4948024;29;20171;-41
2021/11/27 06:23:29;;;;;;;0.70;0.68;;;20.20;50.60;;;;;;4947849;29;20055;-41
2021/11/27 06:25:55;;;;;;;2.17;0.82;;;20.20;50.50;;;;;;4938950;29;20036;-40
2021/11/27 06:28:22;;;;;;;0.85;0.73;;;20.30;50.40;;;;;;4928872;29;20123;-42
2021/11/27 06:30:48;;;;;;;0.63;0.63;;;20.20;50.30;;;;;;4928808;29;20039;-40
2021/11/27 06:33:14;;;;;;;0.70;0.60;;;20.10;50.40;;;;;;4928368;29;20117;-40
2021/11/27 06:35:40;;;;;;;0.80;0.80;;;20.00;50.50;;;;;;4927052;29;20047;-43
2021/11/27 06:38:07;;;;;;;0.73;0.70;;;20.10;50.60;;;;;;4928782;29;20035;-41
2021/11/27 06:40:33;;;;;;;0.80;0.60;;;20.20;50.70;;;;;;4934397;29;20124;-41
2021/11/27 06:43:02;;;;;;;0.60;0.60;;;20.20;50.50;;;;;;4947652;29;20382;-40
2021/11/27 06:45:29;;;;;;;0.73;0.63;;;20.20;50.30;;;;;;4947193;29;20027;-41
2021/11/27 06:47:55;;;;;;;0.80;0.80;;;20.20;50.30;;;;;;4947131;29;20397;-40
2021/11/27 06:50:21;;;;;;;0.70;0.67;;;20.10;50.40;;;;;;4947557;29;20043;-41
2021/11/27 06:52:48;;;;;;;0.77;0.60;;;20.00;50.60;;;;;;4947199;29;20369;-41
2021/11/27 06:55:14;;;;;;;0.63;0.50;;;20.10;50.60;;;;;;4943625;29;20028;-40
2021/11/27 06:57:40;;;;;;;0.57;0.57;;;20.20;50.60;;;;;;4928431;29;20088;-41
2021/11/27 07:00:07;;;;;;;0.70;0.50;;;20.20;50.50;;;;;;4945885;29;20039;-41
2021/11/27 07:02:33;;;;;;;0.70;0.68;;;20.20;50.40;;;;;;4965969;29;20047;-41
2021/11/27 07:04:59;;;;;;;0.90;0.80;;;20.20;50.30;;;;;;4966032;28;20035;-41
2021/11/27 07:07:25;;;;;;;0.85;0.80;;;20.10;51.00;;;;;;4966284;28;20083;-41
2021/11/27 07:09:52;;;;;;;1.13;0.77;;;20.00;50.50;;;;;;4966312;28;20114;-41
2021/11/27 07:12:18;;;;;;;0.77;0.70;;;20.10;50.60;;;;;;4966211;28;20106;-42
2021/11/27 07:14:44;;;;;;;0.70;0.70;;;20.20;50.90;;;;;;4965913;29;20035;-41
2021/11/27 07:17:10;;;;;;;0.68;0.68;;;20.30;50.60;;;;;;4966058;28;20106;-40
2021/11/27 07:19:36;;;;;;;0.63;0.60;;;20.30;50.50;;;;;;4952051;29;20058;-40
2021/11/27 07:22:03;;;;;;;1.08;0.80;;;20.20;50.30;;;;;;4946508;29;20065;-40
2021/11/27 07:24:29;;;;;;;0.97;0.87;;;20.10;50.40;;;;;;4945541;29;20036;-40
2021/11/27 07:26:55;;;;;;;1.23;0.82;;;20.10;50.60;;;;;;4946387;29;20111;-41
2021/11/27 07:29:21;;;;;;;1.00;0.70;;;20.10;50.60;;;;;;4946641;29;20027;-40
2021/11/27 07:31:49;;;;;;;0.60;0.60;;;20.20;50.60;;;;;;4946660;29;20097;-41
2021/11/27 07:34:15;;;;;;;0.75;0.70;;;20.30;50.60;;;;;;4946395;29;20020;-41
2021/11/27 07:36:41;;;;;;;0.75;0.63;;;20.30;50.40;;;;;;4946178;29;20067;-41
2021/11/27 07:39:10;;;;;;;0.85;0.82;;;20.20;50.30;;;;;;4946525;29;20776;-40
2021/11/27 07:41:37;;;;;;;1.08;0.68;;;20.10;50.40;;;;;;4946055;29;20027;-40
2021/11/27 07:44:03;;;;;;;0.70;0.70;;;20.10;50.60;;;;;;4946065;29;20028;-41
2021/11/27 07:46:29;;;;;;;0.70;0.70;;;20.10;50.50;;;;;;4946213;29;20032;-41
2021/11/27 07:48:56;;;;;;;0.90;0.70;;;20.20;50.60;;;;;;4941995;29;20061;-41
2021/11/27 07:51:22;;;;;;;0.90;0.70;;;20.30;50.50;;;;;;4915225;29;20030;-41
2021/11/27 07:53:48;;;;;;;0.90;0.80;;;20.20;50.20;;;;;;4946186;29;20027;-40
2021/11/27 07:56:14;;;;;;;0.70;0.70;;;20.10;50.30;;;;;;4934472;29;20040;-41
2021/11/27 07:58:41;;;;;;;0.65;0.65;;;20.10;50.40;;;;;;4933778;29;20032;-41
2021/11/27 08:01:07;;;;;;;1.33;0.70;;;20.10;50.60;;;;;;4946065;29;20066;-42
2021/11/27 08:03:33;;;;;;;0.70;0.70;;;20.10;50.50;;;;;;4946014;29;20103;-41
2021/11/27 08:05:59;;;;;;;0.57;0.57;;;20.30;50.50;;;;;;4945829;29;20040;-45
2021/11/27 08:08:26;;;;;;;0.93;0.82;;;20.30;50.50;;;;;;4946045;29;20031;-41
2021/11/27 08:10:52;;;;;;;0.60;0.60;;;20.30;50.30;;;;;;4945961;29;20023;-42
2021/11/27 08:13:18;;;;;;;0.70;0.65;;;20.20;50.20;;;;;;4945926;29;20031;-41
2021/11/27 08:15:44;;;;;;;0.80;0.80;;;20.10;50.30;;;;;;4945896;29;20028;-43
2021/11/27 08:18:10;;;;;;;0.77;0.70;;;20.00;50.50;;;;;;4945132;29;20056;-40
2021/11/27 08:20:36;;;;;;;0.93;0.73;;;20.20;50.50;;;;;;4945590;29;20107;-41
2021/11/27 08:23:05;;;;;;;0.70;0.70;;;20.20;50.50;;;;;;4945517;29;20035;-41
2021/11/27 08:25:32;;;;;;;0.98;0.70;;;20.20;50.30;;;;;;4945482;29;20075;-40
2021/11/27 08:27:58;;;;;;;0.95;0.88;;;20.20;50.10;;;;;;4945428;29;20028;-42
2021/11/27 08:30:27;;;;;;;0.70;0.70;;;20.10;50.10;;;;;;4945754;29;20072;-41
2021/11/27 08:32:54;;;;;;;0.70;0.65;;;20.10;50.20;;;;;;4945142;29;20091;-40
2021/11/27 08:35:20;;;;;;;1.25;0.68;;;20.00;50.30;;;;;;4945168;29;20051;-41
2021/11/27 08:37:46;;;;;;;0.90;0.90;;;20.10;50.40;;;;;;4945136;29;20063;-42
2021/11/27 08:40:12;;;;;;;0.68;0.68;;;20.20;50.30;;;;;;4945385;29;20051;-40
2021/11/27 08:42:39;;;;;;;0.65;0.60;;;20.20;50.30;;;;;;4945318;29;20026;-40
2021/11/27 08:45:06;;;;;;;0.80;0.80;;;20.20;50.10;;;;;;4945388;29;20036;-41
2021/11/27 08:47:32;;;;;;;0.80;0.80;;;20.10;50.10;;;;;;4944800;29;20032;-40
2021/11/27 08:50:00;;;;;;;0.70;0.70;;;20.00;50.70;;;;;;4945050;29;20055;-40
2021/11/27 08:52:26;;;;;;;0.70;0.68;;;20.00;50.30;;;;;;4945214;29;20088;-41
2021/11/27 08:54:52;;;;;;;0.90;0.80;;;20.10;50.30;;;;;;4944674;29;20035;-41
2021/11/27 08:57:18;;;;;;;0.75;0.75;;;20.10;50.20;;;;;;4945008;29;20028;-41
2021/11/27 08:59:44;;;;;;;0.73;0.60;;;20.20;50.20;;;;;;4945141;29;20074;-40
2021/11/27 09:02:11;;;;;;;0.80;0.80;;;20.30;50.20;;;;;;4945007;29;20042;-41
2021/11/27 09:04:37;;;;;;;0.88;0.85;;;20.20;49.90;;;;;;4945129;29;20082;-41
2021/11/27 09:07:03;;;;;;;0.70;0.70;;;20.10;50.00;;;;;;4944880;29;20047;-40
2021/11/27 09:09:30;;;;;;;0.98;0.80;;;20.00;50.00;;;;;;4944938;29;20032;-42
2021/11/27 09:11:56;;;;;;;0.70;0.70;;;20.10;50.20;;;;;;4945000;29;20028;-41
2021/11/27 09:14:22;;;;;;;0.90;0.90;;;20.10;50.10;;;;;;4944987;29;20512;-40
2021/11/27 09:16:52;;;;;;;0.70;0.70;;;20.20;50.00;;;;;;4944901;29;20036;-41
2021/11/27 09:19:19;;;;;;;0.90;0.68;;;20.20;50.00;;;;;;4944246;29;20051;-40
2021/11/27 09:21:45;;;;;;;1.20;0.90;;;20.20;49.80;;;;;;4944637;29;20036;-40
2021/11/27 09:24:11;;;;;;;0.70;0.70;;;20.10;49.80;;;;;;4944932;29;20035;-41
2021/11/27 09:26:38;;;;;;;0.77;0.65;;;20.00;49.80;;;;;;4944820;29;20063;-40
2021/11/27 09:29:05;;;;;;;0.70;0.70;;;20.10;50.10;;;;;;4944899;29;20036;-42
2021/11/27 09:31:31;;;;;;;0.80;0.80;;;20.10;50.00;;;;;;4944941;29;20051;-41
2021/11/27 09:33:58;;;;;;;1.05;0.80;;;20.20;49.90;;;;;;4944690;29;20052;-41
2021/11/27 09:36:24;;;;;;;0.80;0.70;;;20.20;49.80;;;;;;4944670;29;20027;-41
2021/11/27 09:38:51;;;;;;;0.90;0.85;;;20.20;49.70;;;;;;4944472;29;20051;-41
2021/11/27 09:41:29;;;;;;;0.88;0.80;;;20.10;49.60;;;;;;4944805;29;20071;-41
2021/11/27 09:43:55;;;;;;;;;;;20.00;49.70;;;;;;4931691;29;20032;-40
2021/11/27 09:46:22;;;;;;;0.60;0.60;;;20.00;49.90;;;;;;4945581;29;19917;-40
2021/11/27 09:48:51;;;;;;;0.85;0.82;;;20.20;49.90;;;;;;4931837;29;20177;-40
2021/11/27 09:51:21;;;;;;;0.80;0.75;;;20.30;49.90;;;;;;4948382;29;20042;-41
2021/11/27 09:53:48;;;;;;;0.90;0.70;;;20.30;49.80;;;;;;4948339;29;20667;-40
2021/11/27 09:56:16;;;;;;;0.65;0.65;;;20.20;49.50;;;;;;4937170;29;20072;-43
2021/11/27 09:58:42;;;;;;;0.60;0.60;;;20.10;49.50;;;;;;4935687;29;20027;-41
2021/11/27 10:01:09;;;;;;;0.75;0.75;;;20.00;49.70;;;;;;4948271;29;20043;-41
2021/11/27 10:03:35;;;;;;;0.93;0.85;;;20.10;49.90;;;;;;4947964;29;20028;-42
2021/11/27 10:06:01;;;;;;;0.70;0.70;;;20.20;49.90;;;;;;4948318;29;20126;-40
2021/11/27 10:08:27;;;;;;;0.70;0.70;;;20.20;49.90;;;;;;4962298;29;20031;-40
2021/11/27 10:10:53;;;;;;;0.70;0.70;;;20.20;49.80;;;;;;4947985;29;20032;-41
2021/11/27 10:13:23;;;;;;;0.80;0.80;;;20.20;49.60;;;;;;4947919;29;20062;-40
2021/11/27 10:15:50;;;;;;;0.80;0.80;;;20.20;49.70;;;;;;4948043;29;20024;-40
2021/11/27 10:18:19;;;;;;;0.80;0.80;;;20.00;49.60;;;;;;4947333;29;20055;-42
2021/11/27 10:20:45;;;;;;;0.80;0.70;;;20.10;49.90;;;;;;4947550;29;20099;-40
2021/11/27 10:23:11;;;;;;;0.77;0.77;;;20.20;49.90;;;;;;4947653;29;20024;-41
2021/11/27 10:25:39;;;;;;;0.65;0.60;;;20.20;49.80;;;;;;4947496;29;20039;-40
2021/11/27 10:28:15;;;;;;;0.80;0.75;;;20.30;49.80;;;;;;4947591;29;20030;-40
2021/11/27 10:30:43;;;;;;;0.77;0.77;;;20.20;49.60;;;;;;4947388;29;20046;-40
2021/11/27 10:33:10;;;;;;;0.88;0.68;;;20.10;49.50;;;;;;4947347;29;20027;-40
2021/11/27 10:35:36;;;;;;;0.80;0.80;;;20.10;49.60;;;;;;4946885;29;20027;-43
2021/11/27 10:38:07;;;;;;;1.00;0.70;;;20.10;49.80;;;;;;4947232;29;20924;-41
2021/11/27 10:40:33;;;;;;;0.70;0.60;;;20.20;49.90;;;;;;4946866;29;20051;-40
2021/11/27 10:43:04;;;;;;;2.20;0.73;;;20.30;49.80;;;;;;4947382;29;20030;-41
2021/11/27 10:45:37;;;;;;;0.85;0.60;;;20.30;49.80;;;;;;4947609;29;20035;-40
2021/11/27 10:48:15;;;;;;;0.68;0.68;;;20.20;49.60;;;;;;4946802;29;20114;-40
2021/11/27 10:50:41;;;;;;;0.65;0.65;;;20.20;49.70;;;;;;4946900;29;20043;-41
2021/11/27 10:53:15;;;;;;;0.60;0.60;;;20.10;49.80;;;;;;4947184;29;20032;-40
2021/11/27 10:55:41;;;;;;;0.80;0.80;;;20.00;49.90;;;;;;4940087;29;20055;-42
2021/11/27 10:58:09;;;;;;;0.70;0.70;;;20.10;50.00;;;;;;4927913;29;20360;-41
2021/11/27 11:00:40;;;;;;;0.68;0.68;;;20.30;50.00;;;;;;4927701;29;20055;-41
2021/11/27 11:03:29;;;;;;;0.60;0.60;;;20.30;50.00;;;;;;4928009;29;20038;-43
2021/11/27 11:05:58;;;;;;;0.90;0.80;;;20.30;49.90;;;;;;4927860;29;20588;-41
2021/11/27 11:08:50;;;;;;;0.73;0.73;;;20.20;49.70;;;;;;4927737;29;20036;-42
2021/11/27 11:11:25;;;;;;;1.02;0.80;;;20.10;49.80;;;;;;4925032;29;20040;-41
2021/11/27 11:13:54;;;;;;;0.68;0.68;;;20.10;50.00;;;;;;4927818;29;20060;-41
2021/11/27 11:16:22;;;;;;;1.00;0.60;;;20.20;50.10;;;;;;4927778;29;20035;-41
2021/11/27 11:18:51;;;;;;;0.60;0.60;;;20.30;50.10;;;;;;4930087;29;20059;-42
2021/11/27 11:21:23;;;;;;;0.73;0.73;;;20.30;50.00;;;;;;4929655;29;20052;-41
2021/11/27 11:23:49;;;;;;;0.70;0.70;;;20.20;49.70;;;;;;4946661;29;20028;-41
2021/11/27 11:26:20;;;;;;;0.63;0.60;;;20.20;49.80;;;;;;4945842;29;20035;-41
2021/11/27 11:28:56;;;;;;;0.88;0.80;;;20.10;49.90;;;;;;4946680;29;20031;-42
2021/11/27 11:31:42;;;;;;;0.55;0.52;;;20.00;50.00;;;;;;4946229;29;20344;-41
2021/11/27 11:34:08;;;;;;;0.70;0.70;;;20.20;50.10;;;;;;4946194;29;20090;-42
2021/11/27 11:36:35;;;;;;;0.70;0.70;;;20.20;50.10;;;;;;4946393;29;20039;-42
2021/11/27 11:39:02;;;;;;;0.75;0.75;;;20.20;50.00;;;;;;4946150;29;20059;-42
2021/11/27 11:41:29;;;;;;;0.95;0.70;;;20.20;49.80;;;;;;4945817;29;20074;-41
2021/11/27 11:43:55;;;;;;;0.85;0.80;;;20.10;49.80;;;;;;4946096;29;20031;-42
2021/11/27 11:46:23;;;;;;;0.60;0.60;;;20.00;50.00;;;;;;4946120;29;20050;-41
2021/11/27 11:48:51;;;;;;;0.52;0.52;;;20.10;50.10;;;;;;4945890;29;20083;-41
2021/11/27 11:51:43;;;;;;;0.80;0.80;;;20.20;50.10;;;;;;4944450;29;20028;-42
2021/11/27 11:54:10;;;;;;;0.88;0.77;;;20.20;50.00;;;;;;4944484;29;20039;-41
2021/11/27 11:56:38;;;;;;;0.90;0.53;;;20.20;50.50;;;;;;4931691;29;20024;-41
2021/11/27 11:59:27;;;;;;;0.70;0.70;;;20.20;49.80;;;;;;4926827;29;20087;-41
2021/11/27 12:02:12;;;;;;;0.77;0.63;;;20.10;50.00;;;;;;4926535;29;20108;-41
2021/11/27 12:04:39;;;;;;;0.77;0.70;;;20.00;50.10;;;;;;4926724;29;20056;-41
2021/11/27 12:07:33;;;;;;;0.82;0.65;;;20.10;50.10;;;;;;4926663;29;20032;-41
2021/11/27 12:10:15;;;;;;;0.50;0.50;;;20.20;50.10;;;;;;4924778;29;20058;-40
2021/11/27 12:12:42;;;;;;;0.50;0.50;;;20.20;50.10;;;;;;4926488;29;20036;-44
2021/11/27 12:15:08;;;;;;;0.70;0.70;;;20.20;49.90;;;;;;4926920;29;20094;-41
2021/11/27 12:17:55;;;;;;;0.68;0.68;;;20.10;49.90;;;;;;4926602;29;20032;-40
2021/11/27 12:20:22;;;;;;;0.70;0.70;;;20.10;50.00;;;;;;4941075;29;20054;-42
2021/11/27 12:22:48;;;;;;;0.60;0.60;;;20.10;50.20;;;;;;4927940;29;20035;-41
2021/11/27 12:25:26;;;;;;;0.50;0.50;;;20.10;50.20;;;;;;4942382;29;20029;-40
2021/11/27 12:28:10;;;;;;;0.68;0.68;;;20.20;50.20;;;;;;4926502;29;20039;-40
2021/11/27 12:30:45;;;;;;;0.68;0.60;;;20.20;50.10;;;;;;4938695;29;20023;-41
2021/11/27 12:33:48;;;;;;;0.63;0.60;;;20.20;49.90;;;;;;4945536;29;20027;-41
2021/11/27 12:36:30;;;;;;;0.50;0.50;;;20.10;49.90;;;;;;4945494;29;20031;-42
2021/11/27 12:39:04;;;;;;;0.70;0.70;;;20.10;50.10;;;;;;4945291;29;20028;-41
2021/11/27 12:41:35;;;;;;;0.65;0.60;;;20.10;50.20;;;;;;4945075;29;20141;-40
2021/11/27 12:44:16;;;;;;;0.68;0.68;;;20.20;50.20;;;;;;4945241;29;20035;-41
2021/11/27 12:46:49;;;;;;;0.60;0.60;;;20.20;50.00;;;;;;4944998;29;20039;-44
2021/11/27 12:49:33;;;;;;;0.82;0.65;;;20.20;49.90;;;;;;4944805;29;20054;-41
2021/11/27 12:52:15;;;;;;;0.57;0.57;;;20.10;49.90;;;;;;4944899;29;20042;-42